Time;durP1;ratioP1;P1;durP2;ratioP2;P2;SDS_P1;SDS_P2;PMS_P1;PMS_P2;Temp;Humidity;BMP_temperature;BMP_pressure;BME280_temperature;BME280_humidity;BME280_pressure;Samples;Min_cycle;Max_cycle;Signal;HPM_P1;HPM_P2
2022/09/04 00:02:22;;;;;;;3.42;2.40;;;;;;;22.05;65.99;99957.63;5069330;28;20361;-81
2022/09/04 00:04:58;;;;;;;7.47;2.90;;;;;;;21.97;66.03;99966.13;5068619;28;20028;-81
2022/09/04 00:07:30;;;;;;;3.67;2.72;;;;;;;21.86;65.72;99935.47;5053051;28;20422;-81
2022/09/04 00:10:11;;;;;;;4.90;2.50;;;;;;;22.07;65.97;99979.03;5069201;28;20032;-80
2022/09/04 00:12:54;;;;;;;4.88;2.75;;;;;;;21.73;66.00;99901.28;5068952;28;20043;-80
2022/09/04 00:15:25;;;;;;;3.88;2.70;;;;;;;22.17;65.71;99983.78;5067212;28;20052;-80
2022/09/04 00:18:12;;;;;;;3.80;2.42;;;;;;;21.78;65.20;99914.44;5062200;28;20036;-80
2022/09/04 00:20:46;;;;;;;4.07;2.60;;;;;;;22.07;65.49;99965.59;5047808;28;20102;-80
2022/09/04 00:23:34;;;;;;;3.90;2.30;;;;;;;22.15;64.85;99963.31;5048737;28;20068;-80
2022/09/04 00:26:21;;;;;;;4.82;2.85;;;;;;;22.32;64.35;100006.22;5048430;28;20108;-81
2022/09/04 00:28:54;;;;;;;4.10;2.60;;;;;;;22.02;64.36;99967.69;5049420;28;20404;-80
2022/09/04 00:31:47;;;;;;;4.93;2.92;;;;;;;22.18;64.40;100024.91;5059121;28;20427;-80
2022/09/04 00:34:32;;;;;;;3.65;2.67;;;;;;;22.13;64.19;100003.69;5047616;28;20036;-79
2022/09/04 00:37:03;;;;;;;6.05;3.08;;;;;;;21.59;64.70;99936.97;5048433;28;20037;-78
2022/09/04 00:39:44;;;;;;;4.78;3.13;;;;;;;21.89;64.98;99986.31;5047154;28;20781;-79
2022/09/04 00:43:05;;;;;;;4.88;2.90;;;;;;;21.96;64.92;99999.31;5047994;28;20419;-80
2022/09/04 00:45:59;;;;;;;4.53;2.65;;;;;;;22.13;64.78;100011.75;4967211;28;20049;-80
2022/09/04 00:48:57;;;;;;;5.97;3.08;;;;;;;22.11;65.05;100016.38;5048817;28;20090;-78
2022/09/04 00:51:46;;;;;;;4.85;2.88;;;;;;;22.03;65.27;100009.69;5048365;28;20025;-79
2022/09/04 00:54:27;;;;;;;5.47;2.83;;;;;;;22.13;65.20;100027.03;5048350;28;20037;-79
2022/09/04 00:57:12;;;;;;;3.88;2.42;;;;;;;21.88;65.84;100031.09;5059547;28;20036;-79
2022/09/04 01:00:17;;;;;;;3.50;2.53;;;;;;;21.89;66.52;100016.75;5051772;28;20086;-79
2022/09/04 01:03:16;;;;;;;6.95;3.33;;;;;;;21.85;67.21;100022.38;4966995;28;20043;-79
2022/09/04 01:05:47;;;;;;;6.80;3.83;;;;;;;21.61;68.02;100023.66;5047803;28;20108;-79
2022/09/04 01:08:34;;;;;;;5.07;2.58;;;;;;;21.63;68.19;100021.75;5063664;28;20036;-80
2022/09/04 01:11:27;;;;;;;5.47;3.13;;;;;;;21.74;67.99;100031.03;5068034;28;20351;-79
2022/09/04 01:14:11;;;;;;;4.32;2.67;;;;;;;21.05;69.22;99960.53;5067308;28;20035;-80
2022/09/04 01:17:12;;;;;;;6.40;4.03;;;;;;;21.37;69.87;100041.94;5067198;28;20085;-79
2022/09/04 01:20:25;;;;;;;5.60;3.47;;;;;;;21.39;69.69;100049.91;5065042;28;20798;-79
2022/09/04 01:23:10;;;;;;;5.40;3.63;;;;;;;21.37;69.94;100043.75;5023433;28;20048;-79
2022/09/04 01:26:00;;;;;;;6.30;3.28;;;;;;;21.24;69.49;100000.63;5046874;28;20029;-78
2022/09/04 01:28:34;;;;;;;6.35;3.72;;;;;;;21.44;69.86;100059.44;5063974;28;20051;-79
2022/09/04 01:31:04;;;;;;;6.85;3.63;;;;;;;21.20;69.69;100017.84;5060447;28;20422;-79
2022/09/04 01:33:53;;;;;;;8.48;3.63;;;;;;;21.55;69.46;100050.84;5067274;28;20074;-79
2022/09/04 01:36:36;;;;;;;5.00;3.38;;;;;;;20.79;69.79;99944.06;5066737;28;20131;-79
2022/09/04 01:39:03;;;;;;;6.80;3.65;;;;;;;21.19;70.17;100014.28;5058496;28;20124;-78
2022/09/04 01:41:51;;;;;;;6.93;3.78;;;;;;;21.06;70.32;100010.53;5065061;28;20040;-79
2022/09/04 01:44:17;;;;;;;6.10;3.53;;;;;;;20.85;70.25;99986.63;5056897;28;20045;-79
2022/09/04 01:47:04;;;;;;;6.30;3.42;;;;;;;20.63;70.60;99956.50;5066874;28;20517;-79
2022/09/04 01:50:13;;;;;;;8.07;3.75;;;;;;;21.17;70.58;100020.69;5056588;28;20087;-79
2022/09/04 01:52:59;;;;;;;5.43;3.10;;;;;;;21.35;70.55;100049.22;4950238;28;20531;-79
2022/09/04 01:55:49;;;;;;;5.72;3.70;;;;;;;20.97;71.15;100013.72;4981407;28;20050;-78
2022/09/04 01:58:37;;;;;;;7.65;3.58;;;;;;;21.23;70.67;100039.16;5050709;28;20135;-80
2022/09/04 02:01:47;;;;;;;6.10;3.72;;;;;;;21.09;70.83;100035.38;5047207;28;20060;-78
2022/09/04 02:04:42;;;;;;;6.57;3.85;;;;;;;21.07;70.80;100037.28;5041164;28;20713;-79
2022/09/04 02:07:26;;;;;;;6.38;3.50;;;;;;;20.85;71.47;100025.94;5046901;28;20040;-79
2022/09/04 02:10:34;;;;;;;7.28;4.25;;;;;;;20.87;71.79;100038.34;5049301;28;20078;-79
2022/09/04 02:13:25;;;;;;;6.05;3.75;;;;;;;20.95;71.66;100053.16;5063563;28;20067;-78
2022/09/04 02:16:03;;;;;;;6.40;3.80;;;;;;;20.99;71.83;100052.03;5066468;28;20044;-79
2022/09/04 02:19:08;;;;;;;6.63;3.55;;;;;;;20.75;71.83;100029.09;5066209;28;20032;-79
2022/09/04 02:21:47;;;;;;;6.40;3.50;;;;;;;20.66;73.03;100048.34;5058971;28;20047;-79
2022/09/04 02:24:39;;;;;;;7.70;3.95;;;;;;;20.23;74.29;100021.00;5056516;28;20464;-79
2022/09/04 02:27:35;;;;;;;6.97;3.55;;;;;;;20.42;74.75;100055.81;5046889;28;20043;-79
2022/09/04 02:30:09;;;;;;;6.70;3.20;;;;;;;20.48;74.30;100038.53;5059456;28;20490;-79
2022/09/04 02:33:01;;;;;;;5.93;3.65;;;;;;;20.32;73.65;100025.91;5065711;28;20036;-78
2022/09/04 02:35:38;;;;;;;6.75;4.22;;;;;;;20.43;73.93;100044.13;5045607;28;20040;-78
2022/09/04 02:38:10;;;;;;;6.85;3.08;;;;;;;20.38;74.18;100055.06;5048949;28;20493;-78
2022/09/04 02:41:12;;;;;;;5.30;2.90;;;;;;;20.33;74.40;100046.41;5050868;28;20118;-79
2022/09/04 02:44:30;;;;;;;5.75;3.70;;;;;;;20.17;73.88;100000.78;5055607;28;20029;-78
2022/09/04 02:47:34;;;;;;;5.38;3.20;;;;;;;20.56;73.57;100047.94;5069066;28;20071;-79
2022/09/04 02:50:10;;;;;;;7.35;3.78;;;;;;;20.63;73.49;100052.97;5055274;28;20428;-79
2022/09/04 02:53:08;;;;;;;9.23;4.05;;;;;;;20.74;72.98;100058.66;5055269;28;20098;-78
2022/09/04 02:56:00;;;;;;;6.30;3.50;;;;;;;20.75;73.01;100049.69;5068473;28;20123;-79
2022/09/04 02:58:51;;;;;;;6.25;2.97;;;;;;;20.61;72.96;100042.34;5068364;28;20074;-79
2022/09/04 03:01:31;;;;;;;10.43;4.05;;;;;;;20.72;72.58;100060.56;5068757;28;20514;-80
2022/09/04 03:04:10;;;;;;;6.10;4.00;;;;;;;20.43;72.97;100037.91;5068647;28;20747;-79
2022/09/04 03:07:00;;;;;;;6.38;3.33;;;;;;;20.73;72.40;100067.69;5068432;28;20135;-79
2022/09/04 03:09:51;;;;;;;6.55;3.60;;;;;;;20.77;71.97;100063.88;5058125;28;20419;-79
2022/09/04 03:12:28;;;;;;;6.85;3.45;;;;;;;20.62;72.80;100062.84;5065529;28;20072;-79
2022/09/04 03:15:47;;;;;;;4.10;2.53;;;;;;;20.51;73.14;100060.69;5069520;28;20082;-78
2022/09/04 03:18:25;;;;;;;5.55;3.47;;;;;;;20.45;72.77;100036.91;4976997;28;20058;-79
2022/09/04 03:21:10;;;;;;;8.40;4.40;;;;;;;20.32;72.86;100020.53;4987765;28;20053;-79
2022/09/04 03:23:54;;;;;;;7.82;4.05;;;;;;;20.67;72.55;100081.41;4987127;28;20137;-80
2022/09/04 03:26:34;;;;;;;5.10;3.23;;;;;;;20.26;73.37;100038.75;4987347;28;20069;-80
2022/09/04 03:29:27;;;;;;;5.47;3.15;;;;;;;20.24;73.19;100041.50;5054095;28;20474;-80
2022/09/04 03:32:17;;;;;;;6.00;3.78;;;;;;;20.29;73.40;100060.03;5070403;28;20044;-80
2022/09/04 03:35:21;;;;;;;7.47;3.65;;;;;;;20.21;74.10;100074.66;5052029;28;20039;-79
2022/09/04 03:38:15;;;;;;;5.80;3.15;;;;;;;19.91;74.38;100030.63;5035941;28;20155;-80
2022/09/04 03:41:10;;;;;;;7.38;4.07;;;;;;;20.16;74.40;100076.69;5056613;28;20040;-80
2022/09/04 03:44:13;;;;;;;5.60;3.58;;;;;;;20.12;74.40;100079.59;5061726;28;20037;-80
2022/09/04 03:47:21;;;;;;;5.78;3.53;;;;;;;20.17;74.03;100088.25;5050882;28;20536;-79
2022/09/04 03:49:59;;;;;;;5.80;3.92;;;;;;;20.03;74.34;100089.81;5023923;28;20052;-79
2022/09/04 03:53:02;;;;;;;5.82;3.47;;;;;;;19.91;75.03;100089.50;5049573;28;20037;-80
2022/09/04 03:55:55;;;;;;;9.55;4.10;;;;;;;20.00;74.44;100095.31;5049063;28;20032;-80
2022/09/04 03:59:07;;;;;;;5.88;2.95;;;;;;;19.73;75.31;100093.91;5055576;28;20107;-80
2022/09/04 04:02:11;;;;;;;6.20;3.72;;;;;;;19.86;74.96;100097.75;5015271;28;20040;-80
2022/09/04 04:05:07;;;;;;;6.10;2.93;;;;;;;19.64;75.93;100101.41;5045117;28;20080;-79
2022/09/04 04:08:00;;;;;;;11.60;3.70;;;;;;;19.43;76.30;100055.13;5068113;28;20028;-79
2022/09/04 04:10:38;;;;;;;9.43;4.35;;;;;;;19.71;76.18;100104.69;5048995;28;20037;-79
2022/09/04 04:13:54;;;;;;;7.03;4.32;;;;;;;19.78;76.35;100118.69;5049204;28;20095;-80
2022/09/04 04:16:39;;;;;;;6.95;4.57;;;;;;;19.79;76.84;100121.28;5066222;28;20109;-80
2022/09/04 04:19:35;;;;;;;8.02;4.82;;;;;;;19.89;77.21;100123.53;5051834;28;20048;-80
2022/09/04 04:22:23;;;;;;;16.02;10.95;;;;;;;20.10;76.27;100113.63;5048756;28;20033;-80
2022/09/04 04:25:02;;;;;;;11.52;5.97;;;;;;;19.93;76.31;100111.75;5038178;28;20049;-80
2022/09/04 04:27:45;;;;;;;8.52;5.53;;;;;;;19.70;75.81;100052.09;5053582;28;20025;-80
2022/09/04 04:30:16;;;;;;;8.82;5.07;;;;;;;20.10;76.65;100135.91;5047305;28;20146;-81
2022/09/04 04:32:47;;;;;;;6.88;4.38;;;;;;;20.20;76.99;100155.06;5048632;28;20499;-80
2022/09/04 04:35:31;;;;;;;7.95;5.22;;;;;;;20.25;76.91;100136.09;5047026;28;20087;-80
2022/09/04 04:38:20;;;;;;;7.47;4.40;;;;;;;20.03;76.87;100084.47;5055685;28;20055;-81
2022/09/04 04:41:09;;;;;;;6.43;3.95;;;;;;;20.57;76.50;100158.66;5065950;28;20056;-81
2022/09/04 04:43:37;;;;;;;5.70;3.05;;;;;;;20.51;76.93;100153.59;5068491;28;20101;-81
2022/09/04 04:46:26;;;;;;;7.88;3.60;;;;;;;20.67;76.10;100151.94;5058337;28;20463;-82
2022/09/04 04:49:24;;;;;;;6.70;4.47;;;;;;;20.71;76.17;100158.00;5067466;28;20119;-81
2022/09/04 04:52:15;;;;;;;5.90;3.95;;;;;;;20.65;75.38;100161.88;5065799;28;20081;-81
2022/09/04 04:55:10;;;;;;;6.03;3.95;;;;;;;20.81;75.39;100177.19;5065360;28;20597;-82
2022/09/04 04:57:59;;;;;;;5.45;3.08;;;;;;;21.03;74.44;100183.19;5061955;28;20028;-81
2022/09/04 05:00:39;;;;;;;6.35;3.75;;;;;;;20.92;73.98;100182.88;5066546;28;20060;-81
2022/09/04 05:03:26;;;;;;;5.05;3.13;;;;;;;21.05;72.29;100183.13;5050186;28;20514;-81
2022/09/04 05:06:01;;;;;;;6.78;3.70;;;;;;;20.85;72.52;100185.00;5066023;28;20056;-81
2022/09/04 05:09:01;;;;;;;6.47;3.60;;;;;;;20.88;73.05;100190.22;5067461;28;20033;-80
2022/09/04 05:11:47;;;;;;;6.50;3.92;;;;;;;20.39;73.36;100114.91;5067800;28;20031;-80
2022/09/04 05:14:22;;;;;;;5.28;3.28;;;;;;;20.63;73.79;100163.72;5062300;28;20068;-81
2022/09/04 05:16:56;;;;;;;5.18;2.83;;;;;;;20.96;72.25;100191.63;5066153;28;20067;-80
2022/09/04 05:19:46;;;;;;;7.32;3.22;;;;;;;21.05;71.95;100199.22;5065740;28;20048;-81
2022/09/04 05:22:21;;;;;;;4.60;2.63;;;;;;;20.72;71.50;100143.66;5065344;28;20035;-82
2022/09/04 05:25:09;;;;;;;4.05;2.53;;;;;;;21.26;71.68;100218.72;5067366;28;20028;-81
2022/09/04 05:28:03;;;;;;;5.40;3.13;;;;;;;21.13;71.48;100215.78;5051048;28;20041;-83
2022/09/04 05:31:19;;;;;;;6.65;3.65;;;;;;;21.18;70.76;100215.53;5050890;28;20029;-81
2022/09/04 05:33:45;;;;;;;4.43;3.08;;;;;;;21.29;70.68;100221.25;5004434;28;20499;-82
2022/09/04 05:36:36;;;;;;;4.68;2.95;;;;;;;21.28;70.40;100231.09;5057839;28;20033;-81
2022/09/04 05:39:14;;;;;;;6.03;3.47;;;;;;;21.38;70.24;100233.31;5052956;28;20032;-81
2022/09/04 05:41:45;;;;;;;6.22;2.85;;;;;;;21.34;71.45;100229.91;5045837;28;20041;-81
2022/09/04 05:44:16;;;;;;;4.93;3.67;;;;;;;21.62;70.31;100232.06;5054459;28;20036;-84
2022/09/04 05:47:09;;;;;;;5.47;3.42;;;;;;;21.66;69.33;100237.28;5046663;28;20037;-78
2022/09/04 05:50:11;;;;;;;5.82;3.22;;;;;;;21.70;68.92;100237.03;5047042;28;20040;-78
2022/09/04 05:53:28;;;;;;;9.02;3.10;;;;;;;21.79;68.64;100244.59;4976402;28;20053;-81
2022/09/04 05:56:06;;;;;;;6.78;3.58;;;;;;;21.93;67.58;100241.19;5001586;28;20133;-81
2022/09/04 05:59:08;;;;;;;4.82;2.85;;;;;;;21.85;67.23;100221.06;5023603;28;20038;-80
2022/09/04 06:02:04;;;;;;;7.93;3.50;;;;;;;22.08;66.74;100241.31;5053404;28;20457;-79
2022/09/04 06:05:00;;;;;;;5.10;3.33;;;;;;;21.54;67.39;100163.66;5066799;28;20036;-80
2022/09/04 06:07:31;;;;;;;4.97;3.25;;;;;;;21.50;67.60;100205.00;5063315;28;20066;-82
2022/09/04 06:10:08;;;;;;;6.15;3.00;;;;;;;21.66;67.01;100183.59;5064061;28;20551;-79
2022/09/04 06:13:01;;;;;;;9.02;2.92;;;;;;;22.00;66.85;100237.22;5045715;28;20028;-81
2022/09/04 06:16:17;;;;;;;5.20;3.03;;;;;;;21.66;66.38;100152.25;5044315;28;20151;-78
2022/09/04 06:19:01;;;;;;;6.63;3.33;;;;;;;22.04;66.83;100227.16;5017192;28;20661;-79
2022/09/04 06:21:45;;;;;;;5.38;3.13;;;;;;;22.16;65.99;100231.00;5064354;28;20094;-78
2022/09/04 06:24:48;;;;;;;4.82;3.08;;;;;;;21.80;67.12;100234.75;5061422;28;20074;-79
2022/09/04 06:27:32;;;;;;;5.47;3.10;;;;;;;21.89;67.51;100231.56;5066074;28;20032;-82
2022/09/04 06:30:06;;;;;;;9.88;3.78;;;;;;;21.58;67.35;100152.66;5061815;28;20032;-82
2022/09/04 06:33:04;;;;;;;5.10;3.03;;;;;;;21.73;67.85;100234.19;5057528;28;20059;-80
2022/09/04 06:36:03;;;;;;;6.70;3.10;;;;;;;21.92;66.32;100204.56;5061993;28;20045;-80
2022/09/04 06:38:49;;;;;;;5.15;3.95;;;;;;;21.85;66.09;100229.13;5063324;28;20032;-79
2022/09/04 06:41:30;;;;;;;5.28;3.17;;;;;;;22.02;65.89;100222.84;5055927;28;20024;-79
2022/09/04 06:44:11;;;;;;;4.72;3.10;;;;;;;21.80;67.10;100227.53;5063049;28;20495;-79
2022/09/04 06:46:39;;;;;;;4.55;2.70;;;;;;;21.89;66.66;100168.91;5061504;28;20574;-82
2022/09/04 06:49:37;;;;;;;5.47;3.25;;;;;;;22.38;65.71;100232.56;5066157;28;20051;-82
2022/09/04 06:52:45;;;;;;;5.03;2.35;;;;;;;22.34;64.22;100208.53;5063855;28;20040;-82
2022/09/04 06:55:29;;;;;;;2.97;2.03;;;;;;;22.67;63.00;100193.28;5065825;28;20045;-85
2022/09/04 06:58:23;;;;;;;3.95;2.75;;;;;;;22.49;64.27;100209.50;5065128;28;20471;-83
2022/09/04 07:01:10;;;;;;;3.65;2.33;;;;;;;22.46;64.91;100201.63;5062721;28;20128;-82
2022/09/04 07:04:01;;;;;;;4.55;2.42;;;;;;;22.85;63.75;100232.56;5065870;28;20033;-82
2022/09/04 07:07:01;;;;;;;3.45;2.42;;;;;;;22.56;63.13;100220.78;5036521;28;20040;-82
2022/09/04 07:09:37;;;;;;;4.65;2.40;;;;;;;22.79;63.90;100218.59;5063837;28;20024;-83
2022/09/04 07:12:24;;;;;;;4.95;2.63;;;;;;;22.86;62.82;100217.28;5063340;28;20036;-81
2022/09/04 07:14:50;;;;;;;4.85;3.05;;;;;;;23.09;62.56;100220.47;5065446;28;20490;-81
2022/09/04 07:17:41;;;;;;;7.70;2.58;;;;;;;23.07;63.06;100213.31;5045797;28;20076;-83
2022/09/04 07:20:16;;;;;;;4.93;3.20;;;;;;;23.17;62.92;100210.13;5064048;28;20082;-81
2022/09/04 07:23:21;;;;;;;8.93;3.47;;;;;;;23.51;61.26;100200.03;5066386;28;20029;-81
2022/09/04 07:26:05;;;;;;;3.67;2.25;;;;;;;23.03;61.61;100201.03;5061970;28;20040;-82
2022/09/04 07:28:52;;;;;;;4.03;2.80;;;;;;;23.18;60.79;100180.44;5054112;28;20039;-83
2022/09/04 07:31:27;;;;;;;4.32;2.40;;;;;;;23.89;59.54;100205.78;5061979;28;20081;-82
2022/09/04 07:34:21;;;;;;;4.60;2.85;;;;;;;23.92;58.34;100186.72;5069099;28;20043;-81
2022/09/04 07:37:02;;;;;;;3.42;1.80;;;;;;;24.14;59.30;100204.22;5069125;28;20045;-84
2022/09/04 07:39:54;;;;;;;3.67;2.45;;;;;;;24.04;57.22;100208.47;5049868;28;20049;-82
2022/09/04 07:42:29;;;;;;;4.25;2.75;;;;;;;24.46;56.96;100177.03;5048220;28;20055;-82
2022/09/04 07:45:04;;;;;;;10.57;2.92;;;;;;;24.80;56.49;100191.88;5056860;28;20765;-81
2022/09/04 07:47:46;;;;;;;4.60;2.38;;;;;;;24.57;56.21;100162.84;5068399;28;20047;-83
2022/09/04 07:50:20;;;;;;;6.45;2.70;;;;;;;25.23;55.81;100193.53;5068888;28;20557;-82
2022/09/04 07:53:08;;;;;;;4.22;2.50;;;;;;;25.66;53.18;100166.25;5069393;28;20468;-82
2022/09/04 07:55:33;;;;;;;5.78;2.47;;;;;;;25.89;52.26;100202.47;5067985;28;20529;-82
2022/09/04 07:58:18;;;;;;;5.32;3.15;;;;;;;26.32;52.62;100197.66;5068212;28;20036;-81
2022/09/04 08:01:22;;;;;;;4.55;2.25;;;;;;;26.16;50.77;100198.78;5068074;28;20032;-81
2022/09/04 08:04:14;;;;;;;3.00;2.30;;;;;;;26.58;49.67;100201.16;5067574;28;20029;-81
2022/09/04 08:06:52;;;;;;;3.65;2.15;;;;;;;26.09;50.73;100146.16;5069117;28;20032;-83
2022/09/04 08:09:26;;;;;;;3.50;2.17;;;;;;;26.94;49.36;100212.94;5069215;28;20024;-81
2022/09/04 08:11:56;;;;;;;4.35;1.88;;;;;;;27.20;50.20;100208.25;5068682;28;20517;-81
2022/09/04 08:15:16;;;;;;;3.67;2.25;;;;;;;27.26;50.53;100188.81;5067984;28;20032;-82
2022/09/04 08:17:57;;;;;;;3.85;2.00;;;;;;;27.53;47.91;100201.25;5054376;28;20544;-84
2022/09/04 08:21:00;;;;;;;4.25;2.00;;;;;;;27.18;46.78;100195.81;5068110;28;20032;-84
2022/09/04 08:23:28;;;;;;;3.75;2.05;;;;;;;27.02;47.75;100197.00;5067737;28;20115;-84
2022/09/04 08:26:13;;;;;;;2.70;1.58;;;;;;;27.63;46.39;100187.84;5067779;28;20036;-84
2022/09/04 08:28:38;;;;;;;3.58;1.88;;;;;;;27.75;46.02;100200.41;5066684;28;20040;-84
2022/09/04 08:31:07;;;;;;;3.90;2.47;;;;;;;27.60;48.34;100196.19;5066979;28;20495;-83
2022/09/04 08:33:56;;;;;;;3.80;2.22;;;;;;;27.64;47.47;100193.13;5068663;28;20032;-84
2022/09/04 08:36:37;;;;;;;5.00;2.35;;;;;;;27.60;50.26;100159.13;5067883;28;20426;-84
2022/09/04 08:39:08;;;;;;;3.35;1.92;;;;;;;28.15;47.65;100194.53;5068487;28;20032;-84
2022/09/04 08:41:59;;;;;;;3.67;2.65;;;;;;;28.37;46.24;100166.53;5068330;28;20037;-82
2022/09/04 08:44:42;;;;;;;3.35;2.08;;;;;;;27.81;45.79;100186.38;5068407;28;20029;-81
2022/09/04 08:47:43;;;;;;;6.30;4.00;;;;;;;27.62;47.05;100183.38;5068031;28;20040;-81
2022/09/04 08:50:50;;;;;;;5.25;2.75;;;;;;;27.18;47.78;100164.19;5067922;28;20070;-82
2022/09/04 08:53:53;;;;;;;4.03;2.65;;;;;;;27.33;50.62;100164.88;5068162;28;20107;-82
2022/09/04 08:56:54;;;;;;;4.27;2.63;;;;;;;27.91;48.45;100172.09;5068205;28;20067;-82
2022/09/04 08:59:57;;;;;;;5.40;2.95;;;;;;;28.02;45.51;100172.09;5042178;28;20501;-86
2022/09/04 09:02:37;;;;;;;12.88;7.57;;;;;;;28.42;46.71;100170.72;5066370;28;20434;-84
2022/09/04 09:05:31;;;;;;;5.95;3.42;;;;;;;28.58;45.00;100171.19;5068243;28;20035;-83
2022/09/04 09:08:25;;;;;;;4.80;2.60;;;;;;;27.82;46.89;100173.69;5067901;28;20035;-84
2022/09/04 09:11:00;;;;;;;4.82;2.90;;;;;;;27.68;46.73;100178.38;5067981;28;20148;-83
2022/09/04 09:13:56;;;;;;;;;;;;;;;27.34;46.99;100174.72;5068093;28;20036;-81
2022/09/04 09:16:43;;;;;;;3.22;2.50;;;;;;;26.89;48.49;100180.81;5064814;28;19920;-79
2022/09/04 09:19:38;;;;;;;5.45;3.50;;;;;;;26.75;49.27;100175.56;5067023;28;20040;-82
2022/09/04 09:22:35;;;;;;;8.32;3.20;;;;;;;26.81;50.56;100185.94;4995678;28;20555;-83
2022/09/04 09:25:23;;;;;;;4.00;2.47;;;;;;;27.40;49.16;100178.81;5067189;28;20032;-82
2022/09/04 09:28:26;;;;;;;11.70;3.05;;;;;;;27.61;49.04;100179.81;5067775;28;20032;-82
2022/09/04 09:31:09;;;;;;;4.47;2.72;;;;;;;27.64;47.74;100187.72;5067511;28;20490;-85
2022/09/04 09:33:41;;;;;;;5.22;3.33;;;;;;;27.88;47.45;100173.19;5066407;28;20466;-81
2022/09/04 09:36:43;;;;;;;6.70;3.45;;;;;;;27.66;47.58;100179.47;5067459;28;20043;-81
2022/09/04 09:39:11;;;;;;;6.95;4.40;;;;;;;27.50;47.54;100182.53;4985623;28;20041;-83
2022/09/04 09:42:21;;;;;;;6.38;4.13;;;;;;;26.18;51.32;100150.88;5052563;28;20106;-84
2022/09/04 09:45:06;;;;;;;6.95;3.92;;;;;;;26.46;50.60;100200.22;5035958;28;20047;-83
2022/09/04 09:47:49;;;;;;;5.20;4.03;;;;;;;26.12;50.40;100200.00;5066551;28;20118;-81
2022/09/04 09:50:19;;;;;;;5.55;3.60;;;;;;;26.26;48.82;100194.44;5066632;28;20596;-83
2022/09/04 09:53:21;;;;;;;7.40;4.45;;;;;;;26.36;48.89;100189.22;5067524;28;20028;-82
2022/09/04 09:55:53;;;;;;;6.43;4.28;;;;;;;26.66;49.51;100187.94;5067145;28;20028;-81
2022/09/04 09:58:25;;;;;;;5.15;3.83;;;;;;;26.73;48.11;100194.63;5067121;28;20109;-83
2022/09/04 10:01:18;;;;;;;5.90;3.78;;;;;;;26.64;46.96;100154.72;5067207;28;20067;-83
2022/09/04 10:04:15;;;;;;;9.57;5.43;;;;;;;27.07;45.99;100196.66;5066790;28;20514;-83
2022/09/04 10:06:49;;;;;;;6.30;4.40;;;;;;;27.22;46.98;100181.03;5066541;28;20025;-82
2022/09/04 10:09:45;;;;;;;5.40;4.28;;;;;;;27.26;45.93;100147.34;5067027;28;20032;-82
2022/09/04 10:12:22;;;;;;;5.63;3.47;;;;;;;27.46;46.18;100176.47;5066885;28;20468;-82
2022/09/04 10:14:56;;;;;;;6.18;4.35;;;;;;;27.61;46.18;100170.84;5067399;28;20028;-83
2022/09/04 10:17:26;;;;;;;5.80;3.65;;;;;;;27.66;45.30;100166.78;5066958;28;20063;-84
2022/09/04 10:20:23;;;;;;;5.50;3.67;;;;;;;27.89;45.13;100161.38;5067241;28;20048;-83
2022/09/04 10:23:04;;;;;;;8.52;4.45;;;;;;;28.07;45.96;100156.34;5066567;28;20064;-83
2022/09/04 10:26:06;;;;;;;6.20;4.22;;;;;;;27.76;45.57;100166.03;5066453;28;20460;-83
2022/09/04 10:29:10;;;;;;;6.55;4.75;;;;;;;28.01;45.66;100156.84;5066596;28;20032;-84
2022/09/04 10:32:02;;;;;;;;;;;;;;;28.10;46.75;100158.81;5065316;28;20032;-84
2022/09/04 10:34:37;;;;;;;4.75;3.45;;;;;;;28.10;46.35;100161.53;5035582;28;19914;-82
2022/09/04 10:37:39;;;;;;;8.55;4.40;;;;;;;27.82;47.46;100154.72;5066716;28;20028;-84
2022/09/04 10:40:37;;;;;;;6.22;4.72;;;;;;;27.89;49.04;100152.38;5066598;28;20509;-84
2022/09/04 10:43:45;;;;;;;6.47;4.90;;;;;;;27.93;47.97;100127.63;5066718;28;20056;-82
2022/09/04 10:46:35;;;;;;;9.10;5.18;;;;;;;28.01;47.28;100140.59;5066191;28;20032;-85
2022/09/04 10:49:10;;;;;;;7.85;4.05;;;;;;;28.00;46.48;100152.41;5066289;28;20464;-82
2022/09/04 10:52:13;;;;;;;6.10;4.55;;;;;;;27.99;51.27;100150.66;5062719;28;20120;-83
2022/09/04 10:55:01;;;;;;;6.10;4.55;;;;;;;27.86;47.58;100148.06;5063001;28;20040;-80
2022/09/04 10:57:36;;;;;;;5.55;3.88;;;;;;;27.93;46.24;100143.00;5064616;28;20025;-82
2022/09/04 11:00:10;;;;;;;6.13;4.47;;;;;;;27.97;46.32;100128.25;5069953;28;20037;-80
2022/09/04 11:03:13;;;;;;;6.95;5.10;;;;;;;27.58;49.24;100125.88;5067316;28;20078;-80
2022/09/04 11:06:11;;;;;;;8.05;4.55;;;;;;;27.80;47.19;100095.19;5068651;28;20096;-82
2022/09/04 11:08:39;;;;;;;5.55;3.92;;;;;;;28.29;47.28;100111.22;5063622;28;20056;-81
2022/09/04 11:11:17;;;;;;;7.32;4.47;;;;;;;28.15;45.28;100094.22;5056845;28;20036;-79
2022/09/04 11:14:13;;;;;;;4.97;3.50;;;;;;;28.10;45.29;100109.13;5074933;28;20485;-80
2022/09/04 11:16:57;;;;;;;7.05;4.30;;;;;;;28.18;45.50;100102.09;5069805;28;20057;-82
2022/09/04 11:19:27;;;;;;;6.72;5.03;;;;;;;28.18;46.22;100099.38;5068320;28;20029;-81
2022/09/04 11:22:13;;;;;;;5.90;3.67;;;;;;;28.14;45.22;100064.50;5069756;28;20036;-79
2022/09/04 11:25:17;;;;;;;4.18;3.13;;;;;;;27.99;44.93;100088.31;5069981;28;20025;-78
2022/09/04 11:28:28;;;;;;;5.47;3.50;;;;;;;27.94;46.03;100077.81;5068507;28;20028;-79
2022/09/04 11:31:35;;;;;;;7.50;4.13;;;;;;;27.86;45.52;100064.91;5066687;28;20624;-79
2022/09/04 11:34:33;;;;;;;7.63;4.03;;;;;;;27.90;47.61;100067.34;5069133;28;20032;-80
2022/09/04 11:37:36;;;;;;;7.78;4.68;;;;;;;27.66;46.16;100082.78;5069096;28;20032;-85
2022/09/04 11:40:26;;;;;;;6.63;3.80;;;;;;;27.46;47.14;100083.50;5069359;28;20578;-83
2022/09/04 11:42:54;;;;;;;6.18;3.63;;;;;;;27.52;46.56;100077.59;5061433;28;20035;-83
2022/09/04 11:45:49;;;;;;;5.65;3.85;;;;;;;28.02;47.03;100071.81;5068109;28;20038;-81
2022/09/04 11:48:27;;;;;;;6.47;3.38;;;;;;;27.87;45.33;100035.97;5068889;28;20483;-81
2022/09/04 11:51:15;;;;;;;6.32;3.72;;;;;;;28.06;45.83;100064.28;5067743;28;20136;-81
2022/09/04 11:54:28;;;;;;;5.40;3.60;;;;;;;28.10;45.24;100055.78;5069819;28;20024;-80
2022/09/04 11:57:09;;;;;;;7.55;4.05;;;;;;;27.94;43.80;99982.94;5070032;28;20499;-81
2022/09/04 11:59:59;;;;;;;5.78;3.53;;;;;;;28.53;45.02;100041.34;5069751;28;20041;-80
2022/09/04 12:03:00;;;;;;;4.70;3.20;;;;;;;28.42;43.22;100043.22;5064513;28;20112;-79
2022/09/04 12:05:59;;;;;;;4.60;3.35;;;;;;;27.83;43.43;100002.81;5068157;28;20060;-81
2022/09/04 12:08:46;;;;;;;5.20;3.72;;;;;;;28.16;43.73;100005.59;5069182;28;20090;-79
2022/09/04 12:11:15;;;;;;;3.85;3.00;;;;;;;28.04;44.20;100030.03;5068626;28;20038;-80
2022/09/04 12:14:18;;;;;;;5.28;3.58;;;;;;;28.40;45.52;100027.94;5069038;28;20029;-81
2022/09/04 12:16:50;;;;;;;5.63;3.28;;;;;;;28.48;43.25;100026.41;5068719;28;20198;-80
2022/09/04 12:19:41;;;;;;;5.28;3.35;;;;;;;28.45;44.30;100026.69;5068831;28;20040;-79
2022/09/04 12:22:35;;;;;;;4.55;2.97;;;;;;;28.55;43.86;100008.66;5068690;28;20037;-80
2022/09/04 12:25:06;;;;;;;4.68;3.05;;;;;;;28.68;43.29;100031.03;5068646;28;20476;-81
2022/09/04 12:27:53;;;;;;;5.50;3.78;;;;;;;28.45;43.94;100041.09;5068741;28;20032;-80
2022/09/04 12:30:22;;;;;;;6.82;4.72;;;;;;;28.17;42.69;100015.44;5068372;28;20039;-81
2022/09/04 12:33:25;;;;;;;5.95;2.97;;;;;;;28.69;46.15;100034.63;5068663;28;20031;-81
2022/09/04 12:36:15;;;;;;;5.57;3.50;;;;;;;28.79;44.03;100021.97;5068583;28;20040;-81
2022/09/04 12:38:49;;;;;;;5.78;3.50;;;;;;;28.52;44.12;100030.59;5068082;28;20029;-82
2022/09/04 12:41:29;;;;;;;5.45;3.63;;;;;;;28.00;44.88;100027.69;5068551;28;20063;-81
2022/09/04 12:44:10;;;;;;;5.07;3.67;;;;;;;28.00;46.05;100028.56;5068220;28;20146;-82
2022/09/04 12:47:06;;;;;;;5.40;3.28;;;;;;;27.78;46.65;100004.19;5068372;28;20024;-81
2022/09/04 12:49:49;;;;;;;5.68;3.63;;;;;;;27.74;45.22;100016.25;5068337;28;20139;-82
2022/09/04 12:52:43;;;;;;;4.73;3.50;;;;;;;28.18;44.75;100022.59;5064269;28;20478;-84
2022/09/04 12:55:15;;;;;;;6.13;3.63;;;;;;;27.98;44.40;100026.97;5064468;28;20055;-84
2022/09/04 12:58:05;;;;;;;6.93;3.22;;;;;;;28.35;44.18;100035.59;5061715;28;21758;-84
2022/09/04 13:00:39;;;;;;;5.25;3.65;;;;;;;28.78;42.82;100003.09;5063862;28;20041;-82
2022/09/04 13:03:26;;;;;;;4.78;3.53;;;;;;;28.83;41.67;100015.28;5064819;28;20518;-80